createdAt,value
2019-05-13T00:02:15.779Z,87.40
2019-05-13T00:05:04.001Z,87.30
2019-05-13T00:07:53.976Z,87.70
2019-05-13T00:10:43.613Z,88.30
2019-05-13T00:13:33.691Z,88.70
2019-05-13T00:16:23.348Z,88.40
2019-05-13T00:19:10.876Z,88.10
2019-05-13T00:21:58.505Z,88.50
2019-05-13T00:24:46.381Z,88.20
2019-05-13T00:27:34.249Z,88.80
2019-05-13T00:30:23.501Z,88.80
2019-05-13T00:33:13.762Z,88.80
2019-05-13T00:36:03.882Z,88.70
2019-05-13T00:38:53.298Z,89.60
2019-05-13T00:41:40.799Z,90.10
2019-05-13T00:44:28.780Z,90.10
2019-05-13T00:47:16.532Z,89.70
2019-05-13T00:50:05.905Z,90.10
2019-05-13T00:52:53.746Z,90.20
2019-05-13T00:55:44.202Z,90.20
2019-05-13T00:58:33.524Z,90.10
2019-05-13T01:01:21.088Z,90.30
2019-05-13T01:04:09.157Z,90.30
2019-05-13T01:06:57.021Z,90.20
2019-05-13T01:09:44.797Z,90.40
2019-05-13T01:12:34.521Z,90.40
2019-05-13T01:15:22.105Z,90.20
2019-05-13T01:18:10.160Z,90.10
2019-05-13T01:20:58.125Z,90.40
2019-05-13T01:23:46.080Z,90.30
2019-05-13T01:26:34.148Z,90.40
2019-05-13T01:29:23.740Z,90.40
2019-05-13T01:32:14.273Z,90.40
2019-05-13T01:35:01.433Z,90.70
2019-05-13T01:37:49.145Z,90.90
2019-05-13T01:40:36.817Z,91.00
2019-05-13T01:43:24.687Z,91.00
2019-05-13T01:46:13.470Z,90.90
2019-05-13T01:49:01.574Z,91.20
2019-05-13T01:51:49.230Z,91.40
2019-05-13T01:54:37.097Z,91.40
2019-05-13T01:57:25.053Z,91.30
2019-05-13T02:00:14.107Z,91.20
2019-05-13T02:03:03.855Z,91.40
2019-05-13T02:05:54.225Z,91.30
2019-05-13T02:08:43.866Z,91.30
2019-05-13T02:11:34.006Z,91.50
2019-05-13T02:14:23.525Z,91.40
2019-05-13T02:17:11.061Z,91.40
2019-05-13T02:19:59.093Z,91.60
2019-05-13T02:22:47.054Z,91.70
2019-05-13T02:25:34.573Z,91.80
2019-05-13T02:28:24.826Z,91.70
2019-05-13T02:31:17.163Z,92.00
2019-05-13T02:34:02.701Z,91.50
2019-05-13T02:36:52.710Z,91.70
2019-05-13T02:39:42.765Z,91.60
2019-05-13T02:42:32.836Z,91.80
2019-05-13T02:45:22.549Z,91.80
2019-05-13T02:48:12.485Z,91.50
2019-05-13T02:50:58.475Z,91.70
2019-05-13T02:53:46.550Z,91.70
2019-05-13T02:56:34.206Z,91.90
2019-05-13T02:59:22.662Z,91.90
2019-05-13T03:02:12.323Z,92.00
2019-05-13T03:05:03.237Z,91.80
2019-05-13T03:07:53.100Z,92.00
2019-05-13T03:10:43.148Z,91.90
2019-05-13T03:13:32.647Z,92.20
2019-05-13T03:16:23.094Z,92.20
2019-05-13T03:19:13.489Z,92.00
2019-05-13T03:22:03.030Z,92.30
2019-05-13T03:24:52.161Z,92.40
2019-05-13T03:27:39.102Z,92.50
2019-05-13T03:30:26.798Z,92.50
2019-05-13T03:33:19.245Z,92.60
2019-05-13T03:36:06.526Z,92.60
2019-05-13T03:39:04.482Z,92.40
2019-05-13T03:41:47.077Z,92.70
2019-05-13T03:44:36.361Z,92.70
2019-05-13T03:47:24.733Z,92.60
2019-05-13T03:50:13.510Z,92.60
2019-05-13T03:53:03.058Z,92.50
2019-05-13T03:55:53.902Z,92.50
2019-05-13T03:58:43.303Z,92.60
2019-05-13T04:01:32.582Z,92.40
2019-05-13T04:04:23.435Z,92.60
2019-05-13T04:07:12.914Z,92.40
2019-05-13T04:10:03.210Z,92.20
2019-05-13T04:12:52.595Z,92.50
2019-05-13T04:15:42.545Z,92.50
2019-05-13T04:18:31.787Z,92.70
2019-05-13T04:21:18.231Z,92.50
2019-05-13T04:24:06.010Z,92.40
2019-05-13T04:26:54.106Z,92.50
2019-05-13T04:29:43.231Z,92.70
2019-05-13T04:32:33.616Z,92.80
2019-05-13T04:35:23.292Z,92.70
2019-05-13T04:38:13.148Z,92.20
2019-05-13T04:41:03.549Z,92.50
2019-05-13T04:43:53.940Z,92.20
2019-05-13T04:46:43.310Z,92.50
2019-05-13T04:49:32.708Z,92.40
2019-05-13T04:52:22.255Z,92.10
2019-05-13T04:55:13.185Z,91.80
2019-05-13T04:58:03.134Z,91.60
2019-05-13T05:01:01.964Z,91.90
2019-05-13T05:04:11.431Z,91.90
2019-05-13T05:07:22.233Z,91.60
2019-05-13T05:10:30.285Z,91.30
2019-05-13T05:13:17.272Z,91.60
2019-05-13T05:16:41.064Z,92.20
2019-05-13T05:20:03.205Z,91.20
2019-05-13T05:22:59.051Z,85.30
2019-05-13T05:25:52.171Z,75.10
2019-05-13T05:29:04.013Z,70.10
2019-05-13T05:32:01.979Z,61.90
2019-05-13T05:35:25.102Z,58.60
2019-05-13T05:38:26.148Z,55.00
2019-05-13T05:41:17.165Z,55.30
2019-05-13T05:44:07.385Z,57.10
2019-05-13T05:46:57.604Z,58.40
2019-05-13T05:49:46.378Z,59.20
2019-05-13T05:52:35.601Z,61.10
2019-05-13T05:55:26.237Z,63.80
2019-05-13T05:58:14.930Z,64.20
2019-05-13T06:01:04.229Z,64.60
2019-05-13T06:03:54.054Z,64.60
2019-05-13T06:06:42.166Z,66.30
2019-05-13T06:09:32.088Z,67.70
2019-05-13T06:12:21.417Z,66.60
2019-05-13T06:15:09.427Z,66.30
2019-05-13T06:17:57.073Z,67.10
2019-05-13T06:20:44.838Z,67.80
2019-05-13T06:23:32.586Z,68.10
2019-05-13T06:26:23.685Z,66.60
2019-05-13T06:29:11.672Z,61.90
2019-05-13T06:32:15.047Z,62.70
2019-05-13T06:34:52.498Z,62.40
2019-05-13T06:37:41.494Z,61.80
2019-05-13T06:40:31.693Z,62.40
2019-05-13T06:43:20.969Z,62.30
2019-05-13T06:46:08.425Z,60.90
2019-05-13T06:48:56.325Z,60.80
2019-05-13T06:51:44.009Z,60.50
2019-05-13T06:54:33.147Z,61.30
2019-05-13T06:57:22.018Z,58.90
2019-05-13T07:00:12.219Z,59.30
2019-05-13T07:03:02.317Z,59.40
2019-05-13T07:05:52.428Z,58.80
2019-05-13T07:08:41.709Z,57.80
2019-05-13T07:11:31.451Z,58.40
2019-05-13T07:14:21.708Z,58.90
2019-05-13T07:17:09.082Z,58.10
2019-05-13T07:19:56.977Z,57.80
2019-05-13T07:22:44.982Z,58.10
2019-05-13T07:25:32.871Z,57.10
2019-05-13T07:28:21.889Z,57.40
2019-05-13T07:31:11.540Z,57.20
2019-05-13T07:34:02.076Z,57.20
2019-05-13T07:36:51.279Z,57.10
2019-05-13T07:39:41.847Z,57.50
2019-05-13T07:42:31.283Z,57.80
2019-05-13T07:45:21.314Z,58.50
2019-05-13T07:48:20.469Z,56.50
2019-05-13T07:51:00.599Z,56.90
2019-05-13T07:53:47.362Z,57.10
2019-05-13T07:56:35.445Z,57.70
2019-05-13T07:59:23.383Z,57.90
2019-05-13T08:02:12.404Z,57.80
2019-05-13T08:05:02.289Z,57.00
2019-05-13T08:07:51.541Z,57.10
2019-05-13T08:10:41.425Z,57.70
2019-05-13T08:13:31.418Z,57.10
2019-05-13T08:16:18.911Z,56.30
2019-05-13T08:19:06.861Z,56.40
2019-05-13T08:21:54.653Z,56.80
2019-05-13T08:24:42.797Z,57.30
2019-05-13T08:27:34.758Z,56.60
2019-05-13T08:30:22.531Z,56.40
2019-05-13T08:33:12.540Z,56.10
2019-05-13T08:36:01.651Z,54.80
2019-05-13T08:38:51.852Z,55.80
2019-05-13T08:41:38.794Z,54.70
2019-05-13T08:44:26.785Z,55.10
2019-05-13T08:47:14.809Z,55.30
2019-05-13T08:50:04.504Z,54.60
2019-05-13T08:52:52.517Z,54.00
2019-05-13T08:55:42.575Z,53.50
2019-05-13T08:58:32.077Z,52.20
2019-05-13T09:01:22.499Z,52.60
2019-05-13T09:04:11.940Z,53.20
2019-05-13T09:07:01.769Z,53.10
2019-05-13T09:09:51.130Z,51.70
2019-05-13T09:12:40.991Z,52.60
2019-05-13T09:15:28.061Z,51.90
2019-05-13T09:18:16.036Z,51.20
2019-05-13T09:21:03.652Z,51.80
2019-05-13T09:23:51.644Z,50.20
2019-05-13T09:26:41.940Z,50.90
2019-05-13T09:29:28.797Z,50.10
2019-05-13T09:32:16.601Z,50.20
2019-05-13T09:35:05.783Z,47.10
2019-05-13T09:37:53.529Z,49.10
2019-05-13T09:40:42.286Z,44.90
2019-05-13T09:43:31.517Z,45.70
2019-05-13T09:46:19.506Z,45.80
2019-05-13T09:49:16.127Z,45.20
2019-05-13T09:51:58.032Z,46.70
2019-05-13T09:54:45.948Z,46.30
2019-05-13T09:57:33.871Z,44.90
2019-05-13T10:00:21.837Z,45.00
2019-05-13T10:03:13.218Z,44.20
2019-05-13T10:06:02.459Z,41.60
2019-05-13T10:08:52.218Z,42.80
2019-05-13T10:11:39.264Z,42.20
2019-05-13T10:14:27.109Z,42.00
2019-05-13T10:17:15.058Z,41.10
2019-05-13T10:20:03.410Z,40.00
2019-05-13T10:22:52.577Z,40.50
2019-05-13T10:25:41.787Z,38.30
2019-05-13T10:28:32.022Z,38.20
2019-05-13T10:31:21.918Z,39.40
2019-05-13T10:34:09.597Z,39.30
2019-05-13T10:36:57.194Z,38.70
2019-05-13T10:39:44.852Z,39.70
2019-05-13T10:42:32.957Z,39.80
2019-05-13T10:45:22.293Z,39.30
2019-05-13T10:48:11.206Z,37.80
2019-05-13T10:50:59.293Z,38.10
2019-05-13T10:53:47.250Z,38.10
2019-05-13T10:56:36.152Z,36.70
2019-05-13T10:59:24.266Z,37.60
2019-05-13T11:02:13.402Z,39.10
2019-05-13T11:05:03.263Z,39.40
2019-05-13T11:07:51.823Z,38.20
2019-05-13T11:10:42.088Z,38.70
2019-05-13T11:13:49.592Z,37.80
2019-05-13T11:16:18.718Z,38.40
2019-05-13T11:19:06.471Z,37.60
2019-05-13T11:21:54.397Z,37.90
2019-05-13T11:24:43.118Z,38.90
2019-05-13T11:27:32.353Z,39.40
2019-05-13T11:30:21.659Z,38.80
2019-05-13T11:33:10.298Z,37.90
2019-05-13T11:35:58.334Z,38.00
2019-05-13T11:38:46.662Z,37.50
2019-05-13T11:41:34.637Z,37.70
2019-05-13T11:44:22.912Z,36.80
2019-05-13T11:47:12.734Z,38.00
2019-05-13T11:50:02.287Z,36.10
2019-05-13T11:52:52.457Z,36.60
2019-05-13T11:55:42.237Z,36.70
2019-05-13T11:58:30.081Z,36.60
2019-05-13T12:01:22.072Z,35.50
2019-05-13T12:04:08.662Z,35.80
2019-05-13T12:06:56.336Z,34.70
2019-05-13T12:09:44.382Z,34.30
2019-05-13T12:12:34.635Z,33.50
2019-05-13T12:15:28.883Z,33.50
2019-05-13T12:18:12.617Z,33.60
2019-05-13T12:21:03.310Z,33.80
2019-05-13T12:23:52.769Z,32.80
2019-05-13T12:26:43.133Z,32.60
2019-05-13T12:29:29.697Z,33.50
2019-05-13T12:32:17.629Z,33.60
2019-05-13T12:35:06.569Z,31.60
2019-05-13T12:37:54.537Z,32.20
2019-05-13T12:40:43.092Z,32.70
2019-05-13T12:43:32.014Z,32.00
2019-05-13T12:46:20.054Z,32.50
2019-05-13T12:49:07.709Z,31.20
2019-05-13T12:52:00.605Z,32.30
2019-05-13T12:54:45.421Z,32.40
2019-05-13T12:57:33.324Z,31.90
2019-05-13T13:00:23.713Z,31.00
2019-05-13T13:03:13.360Z,31.30
2019-05-13T13:06:22.454Z,30.50
2019-05-13T13:08:51.637Z,31.20
2019-05-13T13:11:42.554Z,29.40
2019-05-13T13:14:36.265Z,29.30
2019-05-13T13:17:22.629Z,30.00
2019-05-13T13:20:09.596Z,31.90
2019-05-13T13:22:58.149Z,31.60
2019-05-13T13:25:52.631Z,33.00
2019-05-13T13:28:36.436Z,30.90
2019-05-13T13:31:25.398Z,32.30
2019-05-13T13:34:18.111Z,32.60
2019-05-13T13:37:05.024Z,31.80
2019-05-13T13:39:55.102Z,29.80
2019-05-13T13:42:43.409Z,29.80
2019-05-13T13:45:36.724Z,30.00
2019-05-13T13:48:25.496Z,30.40
2019-05-13T13:51:14.289Z,32.00
2019-05-13T13:54:01.218Z,29.10
2019-05-13T13:56:48.978Z,29.40
2019-05-13T14:00:13.758Z,29.60
2019-05-13T14:02:26.638Z,28.70
2019-05-13T14:05:15.365Z,29.30
2019-05-13T14:08:03.229Z,29.80
2019-05-13T14:10:51.476Z,30.10
2019-05-13T14:13:42.297Z,29.60
2019-05-13T14:16:34.247Z,29.30
2019-05-13T14:19:21.682Z,28.50
2019-05-13T14:22:08.930Z,28.80
2019-05-13T14:24:56.619Z,28.00
2019-05-13T14:27:44.445Z,26.60
2019-05-13T14:30:32.326Z,26.10
2019-05-13T14:33:20.125Z,27.40
2019-05-13T14:36:08.066Z,27.10
2019-05-13T14:38:56.248Z,28.80
2019-05-13T14:41:43.969Z,29.30
2019-05-13T14:44:32.444Z,29.70
2019-05-13T14:47:21.755Z,30.00
2019-05-13T14:50:12.190Z,31.00
2019-05-13T14:53:01.543Z,30.40
2019-05-13T14:55:51.811Z,30.90
2019-05-13T14:58:41.678Z,32.30
2019-05-13T15:01:28.673Z,29.90
2019-05-13T15:04:17.246Z,30.30
2019-05-13T15:07:06.174Z,30.50
2019-05-13T15:09:54.429Z,30.20
2019-05-13T15:12:42.352Z,31.90
2019-05-13T15:15:31.732Z,31.50
2019-05-13T15:18:22.136Z,30.40
2019-05-13T15:21:08.940Z,29.00
2019-05-13T15:23:56.609Z,30.20
2019-05-13T15:26:44.422Z,30.10
2019-05-13T15:29:32.237Z,29.80
2019-05-13T15:32:21.803Z,30.20
2019-05-13T15:35:12.762Z,30.90
2019-05-13T15:38:01.356Z,30.00
2019-05-13T15:40:52.000Z,29.40
2019-05-13T15:43:39.348Z,30.90
2019-05-13T15:46:27.215Z,30.30
2019-05-13T15:49:15.607Z,29.60
2019-05-13T15:52:03.555Z,30.10
2019-05-13T15:54:52.219Z,30.30
2019-05-13T15:57:42.597Z,31.10
2019-05-13T16:00:29.921Z,31.00
2019-05-13T16:03:17.993Z,29.30
2019-05-13T16:06:05.630Z,30.90
2019-05-13T16:08:53.284Z,30.40
2019-05-13T16:11:41.641Z,29.90
2019-05-13T16:14:31.441Z,29.40
2019-05-13T16:17:23.074Z,30.00
2019-05-13T16:20:09.549Z,30.70
2019-05-13T16:22:57.090Z,30.90
2019-05-13T16:25:44.833Z,30.40
2019-05-13T16:28:33.007Z,31.30
2019-05-13T16:31:20.876Z,30.50
2019-05-13T16:34:08.711Z,30.90
2019-05-13T16:36:56.757Z,32.00
2019-05-13T16:39:44.817Z,32.40
2019-05-13T16:42:32.654Z,32.20
2019-05-13T16:45:21.849Z,32.00
2019-05-13T16:48:12.148Z,30.90
2019-05-13T16:50:59.658Z,31.30
2019-05-13T16:53:47.689Z,31.00
2019-05-13T16:56:35.974Z,31.30
2019-05-13T16:59:23.649Z,32.00
2019-05-13T17:02:12.663Z,32.30
2019-05-13T17:05:01.432Z,32.90
2019-05-13T17:07:51.406Z,32.80
2019-05-13T17:10:41.988Z,33.30
2019-05-13T17:13:31.501Z,33.70
2019-05-13T17:16:21.190Z,34.40
2019-05-13T17:19:08.637Z,33.60
2019-05-13T17:21:56.645Z,34.20
2019-05-13T17:24:44.374Z,34.70
2019-05-13T17:27:32.319Z,35.40
2019-05-13T17:30:22.031Z,35.00
2019-05-13T17:33:11.764Z,32.60
2019-05-13T17:36:01.861Z,33.10
2019-05-13T17:38:49.497Z,33.10
2019-05-13T17:41:37.217Z,33.30
2019-05-13T17:44:25.234Z,31.80
2019-05-13T17:47:13.373Z,31.40
2019-05-13T17:50:01.337Z,31.00
2019-05-13T17:52:51.188Z,30.60
2019-05-13T17:55:39.054Z,31.50
2019-05-13T17:58:27.059Z,30.90
2019-05-13T18:01:15.157Z,31.40
2019-05-13T18:04:02.729Z,32.00
2019-05-13T18:06:52.301Z,31.30
2019-05-13T18:09:42.180Z,31.80
2019-05-13T18:12:30.096Z,32.10
2019-05-13T18:18:05.282Z,30.70
2019-05-13T18:21:01.470Z,30.80
2019-05-13T18:23:52.274Z,31.30
2019-05-13T18:26:42.123Z,31.60
2019-05-13T18:29:58.410Z,32.00
2019-05-13T18:32:49.092Z,32.10
2019-05-13T18:35:41.837Z,32.20
2019-05-13T18:38:38.545Z,32.00
2019-05-13T18:44:15.261Z,31.90
2019-05-13T18:47:03.308Z,33.00
2019-05-13T18:50:07.048Z,33.30
2019-05-13T18:52:56.813Z,33.70
2019-05-13T18:55:44.674Z,34.30
2019-05-13T19:01:23.364Z,34.90
2019-05-13T19:04:11.873Z,35.40
2019-05-13T19:07:03.132Z,35.70
2019-05-13T19:09:52.246Z,35.80
2019-05-13T19:12:42.068Z,36.10
2019-05-13T19:15:31.704Z,36.70
2019-05-13T19:18:21.290Z,36.70
2019-05-13T19:21:09.519Z,37.30
2019-05-13T19:23:57.444Z,37.50
2019-05-13T19:26:45.457Z,38.10
2019-05-13T19:29:33.301Z,37.70
2019-05-13T19:32:21.869Z,38.50
2019-05-13T19:35:11.782Z,38.80
2019-05-13T19:38:01.652Z,39.30
2019-05-13T19:40:49.024Z,39.50
2019-05-13T19:43:37.272Z,40.10
2019-05-13T19:46:25.801Z,40.30
2019-05-13T19:49:28.214Z,40.40
2019-05-13T19:52:03.541Z,40.90
2019-05-13T19:54:51.484Z,40.50
2019-05-13T19:57:39.638Z,41.30
2019-05-13T20:00:27.510Z,41.50
2019-05-13T20:03:15.352Z,42.10
2019-05-13T20:06:03.309Z,41.80
2019-05-13T20:08:51.806Z,42.10
2019-05-13T20:11:41.790Z,42.90
2019-05-13T20:14:29.778Z,43.00
2019-05-13T20:17:17.742Z,43.50
2019-05-13T20:20:06.887Z,43.00
2019-05-13T20:22:54.909Z,44.20
2019-05-13T20:25:42.653Z,43.90
2019-05-13T20:28:31.706Z,44.40
2019-05-13T20:31:21.668Z,45.30
2019-05-13T20:34:11.837Z,45.30
2019-05-13T20:37:02.201Z,45.10
2019-05-13T20:39:51.517Z,45.60
2019-05-13T20:42:41.428Z,45.40
2019-05-13T20:48:18.217Z,45.40
2019-05-13T20:51:05.918Z,45.90
2019-05-13T20:53:54.034Z,46.40
2019-05-13T20:56:42.187Z,46.10
2019-05-13T20:59:32.214Z,49.40
2019-05-13T21:02:22.195Z,51.40
2019-05-13T21:05:11.928Z,53.90
2019-05-13T21:08:01.654Z,53.50
2019-05-13T21:10:51.580Z,55.00
2019-05-13T21:13:41.063Z,56.40
2019-05-13T21:16:28.460Z,56.10
2019-05-13T21:19:16.417Z,54.70
2019-05-13T21:22:04.363Z,56.70
2019-05-13T21:24:52.318Z,54.40
2019-05-13T21:27:41.984Z,53.50
2019-05-13T21:30:30.153Z,52.20
2019-05-13T21:33:18.196Z,51.70
2019-05-13T21:36:06.061Z,52.40
2019-05-13T21:38:53.693Z,58.20
2019-05-13T21:41:41.550Z,60.80
2019-05-13T21:44:29.696Z,62.70
2019-05-13T21:47:17.944Z,63.10
2019-05-13T21:50:07.488Z,64.20
2019-05-13T21:52:55.085Z,66.20
2019-05-13T21:55:43.000Z,65.60
2019-05-13T21:58:31.333Z,67.20
2019-05-13T22:01:23.132Z,69.40
2019-05-13T22:04:09.078Z,70.00
2019-05-13T22:06:56.712Z,70.10
2019-05-13T22:09:44.765Z,71.80
2019-05-13T22:12:32.441Z,72.30
2019-05-13T22:15:21.843Z,72.50
2019-05-13T22:18:11.307Z,72.40
2019-05-13T22:21:01.138Z,73.10
2019-05-13T22:23:48.760Z,74.40
2019-05-13T22:26:36.593Z,74.70
2019-05-13T22:29:24.202Z,74.90
2019-05-13T22:32:12.102Z,75.30
2019-05-13T22:35:01.754Z,75.90
2019-05-13T22:37:51.224Z,76.80
2019-05-13T22:40:41.756Z,77.30
2019-05-13T22:43:28.483Z,77.50
2019-05-13T22:46:16.181Z,77.90
2019-05-13T22:49:04.261Z,78.20
2019-05-13T22:51:52.317Z,77.80
2019-05-13T22:54:41.236Z,78.40
2019-05-13T22:57:31.314Z,78.30
2019-05-13T23:00:19.471Z,79.10
2019-05-13T23:03:07.235Z,78.30
2019-05-13T23:05:55.144Z,78.90
2019-05-13T23:08:43.049Z,78.60
2019-05-13T23:11:31.150Z,78.80
2019-05-13T23:14:21.862Z,79.40
2019-05-13T23:17:12.276Z,79.90
2019-05-13T23:20:01.255Z,80.50
2019-05-13T23:22:51.679Z,80.20
2019-05-13T23:25:40.122Z,81.10
2019-05-13T23:28:28.337Z,80.30
2019-05-13T23:31:16.203Z,81.60
2019-05-13T23:34:04.373Z,81.60
2019-05-13T23:36:52.204Z,82.50
2019-05-13T23:39:41.669Z,83.40
2019-05-13T23:42:31.832Z,83.80
2019-05-13T23:45:19.186Z,84.00
2019-05-13T23:48:07.115Z,84.20
2019-05-13T23:50:54.813Z,84.80
2019-05-13T23:53:42.464Z,84.60
2019-05-13T23:56:31.086Z,85.60
2019-05-13T23:59:19.313Z,85.60
